sensor_id;sensor_type;location;lat;lon;timestamp;temperature;humidity
78467;SHT31;67759;51.972;5.650;2023-05-24T00:02:10;11.7;57.5
78467;SHT31;67759;51.972;5.650;2023-05-24T00:04:41;11.7;57.8
78467;SHT31;67759;51.972;5.650;2023-05-24T00:07:11;11.6;58.5
78467;SHT31;67759;51.972;5.650;2023-05-24T00:09:42;11.6;56.2
78467;SHT31;67759;51.972;5.650;2023-05-24T00:12:13;11.6;58.3
78467;SHT31;67759;51.972;5.650;2023-05-24T00:14:43;11.5;58.1
78467;SHT31;67759;51.972;5.650;2023-05-24T00:17:13;11.5;58.7
78467;SHT31;67759;51.972;5.650;2023-05-24T00:19:42;11.5;59.0
78467;SHT31;67759;51.972;5.650;2023-05-24T00:22:12;11.4;57.7
78467;SHT31;67759;51.972;5.650;2023-05-24T00:24:42;11.4;58.4
78467;SHT31;67759;51.972;5.650;2023-05-24T00:27:12;11.4;60.5
78467;SHT31;67759;51.972;5.650;2023-05-24T00:29:42;11.3;60.0
78467;SHT31;67759;51.972;5.650;2023-05-24T00:32:13;11.3;61.6
78467;SHT31;67759;51.972;5.650;2023-05-24T00:34:43;11.3;60.9
78467;SHT31;67759;51.972;5.650;2023-05-24T00:37:13;11.2;58.4
78467;SHT31;67759;51.972;5.650;2023-05-24T00:39:44;11.2;60.8
78467;SHT31;67759;51.972;5.650;2023-05-24T00:42:14;11.2;59.0
78467;SHT31;67759;51.972;5.650;2023-05-24T00:44:43;11.1;59.9
78467;SHT31;67759;51.972;5.650;2023-05-24T00:47:13;11.1;59.6
78467;SHT31;67759;51.972;5.650;2023-05-24T00:49:43;11.1;58.1
78467;SHT31;67759;51.972;5.650;2023-05-24T00:52:13;11.1;61.5
78467;SHT31;67759;51.972;5.650;2023-05-24T00:54:43;11.0;58.9
78467;SHT31;67759;51.972;5.650;2023-05-24T00:57:13;11.0;61.1
78467;SHT31;67759;51.972;5.650;2023-05-24T00:59:45;11.0;58.8
78467;SHT31;67759;51.972;5.650;2023-05-24T01:02:14;11.0;60.9
78467;SHT31;67759;51.972;5.650;2023-05-24T01:04:44;11.0;61.1
78467;SHT31;67759;51.972;5.650;2023-05-24T01:07:22;10.9;58.5
78467;SHT31;67759;51.972;5.650;2023-05-24T01:10:09;10.9;61.6
78467;SHT31;67759;51.972;5.650;2023-05-24T01:12:52;10.9;60.4
78467;SHT31;67759;51.972;5.650;2023-05-24T01:15:32;10.8;58.8
78467;SHT31;67759;51.972;5.650;2023-05-24T01:18:10;10.8;59.4
78467;SHT31;67759;51.972;5.650;2023-05-24T01:20:42;10.7;61.4
78467;SHT31;67759;51.972;5.650;2023-05-24T01:23:31;10.7;62.6
78467;SHT31;67759;51.972;5.650;2023-05-24T01:26:16;10.7;62.7
78467;SHT31;67759;51.972;5.650;2023-05-24T01:28:49;10.6;63.6
78467;SHT31;67759;51.972;5.650;2023-05-24T01:31:19;10.6;62.0
78467;SHT31;67759;51.972;5.650;2023-05-24T01:33:49;10.6;62.0
78467;SHT31;67759;51.972;5.650;2023-05-24T01:36:19;10.6;61.9
78467;SHT31;67759;51.972;5.650;2023-05-24T01:38:50;10.6;62.4
78467;SHT31;67759;51.972;5.650;2023-05-24T01:41:29;10.6;62.2
78467;SHT31;67759;51.972;5.650;2023-05-24T01:44:09;10.6;61.7
78467;SHT31;67759;51.972;5.650;2023-05-24T01:46:49;10.6;61.6
78467;SHT31;67759;51.972;5.650;2023-05-24T01:49:25;10.6;60.9
78467;SHT31;67759;51.972;5.650;2023-05-24T01:52:00;10.6;63.0
78467;SHT31;67759;51.972;5.650;2023-05-24T01:54:33;10.6;61.7
78467;SHT31;67759;51.972;5.650;2023-05-24T01:57:09;10.6;64.1
78467;SHT31;67759;51.972;5.650;2023-05-24T01:59:42;10.6;62.6
78467;SHT31;67759;51.972;5.650;2023-05-24T02:02:12;10.6;61.1
78467;SHT31;67759;51.972;5.650;2023-05-24T02:04:42;10.6;62.3
78467;SHT31;67759;51.972;5.650;2023-05-24T02:07:14;10.6;62.3
78467;SHT31;67759;51.972;5.650;2023-05-24T02:09:43;10.6;62.3
78467;SHT31;67759;51.972;5.650;2023-05-24T02:12:13;10.6;61.9
78467;SHT31;67759;51.972;5.650;2023-05-24T02:14:43;10.6;62.0
78467;SHT31;67759;51.972;5.650;2023-05-24T02:17:13;10.5;61.8
78467;SHT31;67759;51.972;5.650;2023-05-24T02:19:44;10.5;62.3
78467;SHT31;67759;51.972;5.650;2023-05-24T02:22:16;10.5;61.6
78467;SHT31;67759;51.972;5.650;2023-05-24T02:24:48;10.5;61.5
78467;SHT31;67759;51.972;5.650;2023-05-24T02:27:20;10.4;59.7
78467;SHT31;67759;51.972;5.650;2023-05-24T02:29:50;10.4;61.0
78467;SHT31;67759;51.972;5.650;2023-05-24T02:32:21;10.4;61.8
78467;SHT31;67759;51.972;5.650;2023-05-24T02:34:51;10.4;62.0
78467;SHT31;67759;51.972;5.650;2023-05-24T02:37:20;10.3;62.8
78467;SHT31;67759;51.972;5.650;2023-05-24T02:39:50;10.3;63.6
78467;SHT31;67759;51.972;5.650;2023-05-24T02:42:21;10.3;60.6
78467;SHT31;67759;51.972;5.650;2023-05-24T02:44:51;10.3;59.8
78467;SHT31;67759;51.972;5.650;2023-05-24T02:47:20;10.2;63.5
78467;SHT31;67759;51.972;5.650;2023-05-24T02:49:50;10.2;64.6
78467;SHT31;67759;51.972;5.650;2023-05-24T02:52:20;10.2;63.2
78467;SHT31;67759;51.972;5.650;2023-05-24T02:54:50;10.2;63.0
78467;SHT31;67759;51.972;5.650;2023-05-24T02:57:20;10.2;64.8
78467;SHT31;67759;51.972;5.650;2023-05-24T02:59:50;10.1;62.1
78467;SHT31;67759;51.972;5.650;2023-05-24T03:02:19;10.1;62.9
78467;SHT31;67759;51.972;5.650;2023-05-24T03:04:49;10.1;62.0
78467;SHT31;67759;51.972;5.650;2023-05-24T03:07:19;10.1;63.0
78467;SHT31;67759;51.972;5.650;2023-05-24T03:09:49;10.1;65.4
78467;SHT31;67759;51.972;5.650;2023-05-24T03:12:19;10.1;62.9
78467;SHT31;67759;51.972;5.650;2023-05-24T03:14:49;10.0;62.9
78467;SHT31;67759;51.972;5.650;2023-05-24T03:17:19;10.0;62.9
78467;SHT31;67759;51.972;5.650;2023-05-24T03:19:49;10.0;63.6
78467;SHT31;67759;51.972;5.650;2023-05-24T03:22:19;10.0;63.7
78467;SHT31;67759;51.972;5.650;2023-05-24T03:24:49;10.0;64.3
78467;SHT31;67759;51.972;5.650;2023-05-24T03:27:18;10.0;64.0
78467;SHT31;67759;51.972;5.650;2023-05-24T03:29:48;9.9;63.1
78467;SHT31;67759;51.972;5.650;2023-05-24T03:32:17;9.9;63.4
78467;SHT31;67759;51.972;5.650;2023-05-24T03:34:47;9.9;63.7
78467;SHT31;67759;51.972;5.650;2023-05-24T03:37:17;9.9;64.6
78467;SHT31;67759;51.972;5.650;2023-05-24T03:39:47;9.9;64.9
78467;SHT31;67759;51.972;5.650;2023-05-24T03:42:16;9.9;64.1
78467;SHT31;67759;51.972;5.650;2023-05-24T03:44:46;9.9;65.3
78467;SHT31;67759;51.972;5.650;2023-05-24T03:47:15;9.9;64.3
78467;SHT31;67759;51.972;5.650;2023-05-24T03:49:45;9.9;66.4
78467;SHT31;67759;51.972;5.650;2023-05-24T03:52:14;9.9;64.1
78467;SHT31;67759;51.972;5.650;2023-05-24T03:54:44;9.9;65.4
78467;SHT31;67759;51.972;5.650;2023-05-24T03:57:14;10.0;64.0
78467;SHT31;67759;51.972;5.650;2023-05-24T03:59:43;10.0;65.1
78467;SHT31;67759;51.972;5.650;2023-05-24T04:02:13;10.0;63.4
78467;SHT31;67759;51.972;5.650;2023-05-24T04:04:43;10.0;63.9
78467;SHT31;67759;51.972;5.650;2023-05-24T04:07:13;10.0;66.1
78467;SHT31;67759;51.972;5.650;2023-05-24T04:09:43;10.0;64.6
78467;SHT31;67759;51.972;5.650;2023-05-24T04:12:13;10.0;63.3
78467;SHT31;67759;51.972;5.650;2023-05-24T04:14:42;10.0;65.8
78467;SHT31;67759;51.972;5.650;2023-05-24T04:17:12;10.0;63.7
78467;SHT31;67759;51.972;5.650;2023-05-24T04:19:41;10.0;66.9
78467;SHT31;67759;51.972;5.650;2023-05-24T04:22:13;10.0;65.7
78467;SHT31;67759;51.972;5.650;2023-05-24T04:24:48;10.1;67.0
78467;SHT31;67759;51.972;5.650;2023-05-24T04:27:18;10.1;66.3
78467;SHT31;67759;51.972;5.650;2023-05-24T04:29:48;10.1;65.7
78467;SHT31;67759;51.972;5.650;2023-05-24T04:32:20;10.1;66.0
78467;SHT31;67759;51.972;5.650;2023-05-24T04:34:50;10.1;65.3
78467;SHT31;67759;51.972;5.650;2023-05-24T04:37:23;10.1;66.1
78467;SHT31;67759;51.972;5.650;2023-05-24T04:39:54;10.2;67.2
78467;SHT31;67759;51.972;5.650;2023-05-24T04:42:24;10.2;67.7
78467;SHT31;67759;51.972;5.650;2023-05-24T04:44:53;10.2;65.0
78467;SHT31;67759;51.972;5.650;2023-05-24T04:47:23;10.3;67.2
78467;SHT31;67759;51.972;5.650;2023-05-24T04:49:52;10.3;65.8
78467;SHT31;67759;51.972;5.650;2023-05-24T04:52:22;10.4;67.3
78467;SHT31;67759;51.972;5.650;2023-05-24T04:54:52;10.4;67.2
78467;SHT31;67759;51.972;5.650;2023-05-24T04:57:24;10.5;66.6
78467;SHT31;67759;51.972;5.650;2023-05-24T04:59:54;10.6;66.9
78467;SHT31;67759;51.972;5.650;2023-05-24T05:02:23;10.7;67.2
78467;SHT31;67759;51.972;5.650;2023-05-24T05:04:54;10.8;66.3
78467;SHT31;67759;51.972;5.650;2023-05-24T05:07:25;10.9;66.1
78467;SHT31;67759;51.972;5.650;2023-05-24T05:09:54;10.9;67.0
78467;SHT31;67759;51.972;5.650;2023-05-24T05:12:24;11.0;68.1
78467;SHT31;67759;51.972;5.650;2023-05-24T05:14:54;11.1;67.8
78467;SHT31;67759;51.972;5.650;2023-05-24T05:17:24;11.2;68.1
78467;SHT31;67759;51.972;5.650;2023-05-24T05:19:53;11.3;67.0
78467;SHT31;67759;51.972;5.650;2023-05-24T05:22:23;11.4;67.0
78467;SHT31;67759;51.972;5.650;2023-05-24T05:24:52;11.5;67.2
78467;SHT31;67759;51.972;5.650;2023-05-24T05:27:22;11.6;67.9
78467;SHT31;67759;51.972;5.650;2023-05-24T05:29:52;11.7;65.6
78467;SHT31;67759;51.972;5.650;2023-05-24T05:32:22;11.8;68.3
78467;SHT31;67759;51.972;5.650;2023-05-24T05:34:52;11.9;66.9
78467;SHT31;67759;51.972;5.650;2023-05-24T05:37:21;12.0;67.9
78467;SHT31;67759;51.972;5.650;2023-05-24T05:39:52;12.1;65.6
78467;SHT31;67759;51.972;5.650;2023-05-24T05:42:22;12.3;68.1
78467;SHT31;67759;51.972;5.650;2023-05-24T05:44:52;12.4;66.4
78467;SHT31;67759;51.972;5.650;2023-05-24T05:47:21;12.5;65.6
78467;SHT31;67759;51.972;5.650;2023-05-24T05:49:51;12.7;64.8
78467;SHT31;67759;51.972;5.650;2023-05-24T05:52:21;12.9;66.2
78467;SHT31;67759;51.972;5.650;2023-05-24T05:54:51;13.0;65.3
78467;SHT31;67759;51.972;5.650;2023-05-24T05:57:20;13.1;65.6
78467;SHT31;67759;51.972;5.650;2023-05-24T05:59:50;13.2;63.1
78467;SHT31;67759;51.972;5.650;2023-05-24T06:02:20;13.3;62.5
78467;SHT31;67759;51.972;5.650;2023-05-24T06:04:51;13.3;62.6
78467;SHT31;67759;51.972;5.650;2023-05-24T06:07:20;13.4;62.5
78467;SHT31;67759;51.972;5.650;2023-05-24T06:09:50;13.5;62.7
78467;SHT31;67759;51.972;5.650;2023-05-24T06:12:19;13.6;62.8
78467;SHT31;67759;51.972;5.650;2023-05-24T06:14:49;13.7;62.2
78467;SHT31;67759;51.972;5.650;2023-05-24T06:17:19;13.8;62.0
78467;SHT31;67759;51.972;5.650;2023-05-24T06:19:50;13.8;61.3
78467;SHT31;67759;51.972;5.650;2023-05-24T06:22:22;13.9;62.5
78467;SHT31;67759;51.972;5.650;2023-05-24T06:24:54;14.0;61.7
78467;SHT31;67759;51.972;5.650;2023-05-24T06:27:23;14.1;60.7
78467;SHT31;67759;51.972;5.650;2023-05-24T06:29:54;14.2;60.3
78467;SHT31;67759;51.972;5.650;2023-05-24T06:32:24;14.3;60.5
78467;SHT31;67759;51.972;5.650;2023-05-24T06:34:54;14.4;59.9
78467;SHT31;67759;51.972;5.650;2023-05-24T06:37:23;14.5;61.0
78467;SHT31;67759;51.972;5.650;2023-05-24T06:39:52;14.6;60.2
78467;SHT31;67759;51.972;5.650;2023-05-24T06:42:23;14.7;59.2
78467;SHT31;67759;51.972;5.650;2023-05-24T06:44:53;14.8;59.4
78467;SHT31;67759;51.972;5.650;2023-05-24T06:47:23;14.9;58.4
78467;SHT31;67759;51.972;5.650;2023-05-24T06:49:55;15.0;57.7
78467;SHT31;67759;51.972;5.650;2023-05-24T06:52:25;15.1;57.9
78467;SHT31;67759;51.972;5.650;2023-05-24T06:54:55;15.2;57.7
78467;SHT31;67759;51.972;5.650;2023-05-24T06:57:25;15.3;56.8
78467;SHT31;67759;51.972;5.650;2023-05-24T06:59:54;15.4;56.7
78467;SHT31;67759;51.972;5.650;2023-05-24T07:02:24;15.6;55.6
78467;SHT31;67759;51.972;5.650;2023-05-24T07:04:55;15.6;55.3
78467;SHT31;67759;51.972;5.650;2023-05-24T07:07:27;15.7;55.6
78467;SHT31;67759;51.972;5.650;2023-05-24T07:09:57;15.9;54.7
78467;SHT31;67759;51.972;5.650;2023-05-24T07:12:27;16.0;54.6
78467;SHT31;67759;51.972;5.650;2023-05-24T07:14:56;16.1;55.8
78467;SHT31;67759;51.972;5.650;2023-05-24T07:17:26;16.2;54.1
78467;SHT31;67759;51.972;5.650;2023-05-24T07:19:56;16.4;53.9
78467;SHT31;67759;51.972;5.650;2023-05-24T07:22:25;16.4;53.0
78467;SHT31;67759;51.972;5.650;2023-05-24T07:24:57;16.5;52.3
78467;SHT31;67759;51.972;5.650;2023-05-24T07:27:27;16.5;52.7
78467;SHT31;67759;51.972;5.650;2023-05-24T07:29:57;16.5;52.7
78467;SHT31;67759;51.972;5.650;2023-05-24T07:32:27;16.6;53.0
78467;SHT31;67759;51.972;5.650;2023-05-24T07:34:58;16.6;52.6
78467;SHT31;67759;51.972;5.650;2023-05-24T07:37:28;16.7;52.6
78467;SHT31;67759;51.972;5.650;2023-05-24T07:39:58;16.7;52.5
78467;SHT31;67759;51.972;5.650;2023-05-24T07:42:28;16.8;51.9
78467;SHT31;67759;51.972;5.650;2023-05-24T07:44:57;16.9;51.8
78467;SHT31;67759;51.972;5.650;2023-05-24T07:47:27;17.0;51.3
78467;SHT31;67759;51.972;5.650;2023-05-24T07:49:56;17.0;51.0
78467;SHT31;67759;51.972;5.650;2023-05-24T07:52:26;17.0;51.8
78467;SHT31;67759;51.972;5.650;2023-05-24T07:54:57;17.0;51.2
78467;SHT31;67759;51.972;5.650;2023-05-24T07:57:27;17.0;50.6
78467;SHT31;67759;51.972;5.650;2023-05-24T07:59:56;17.0;50.4
78467;SHT31;67759;51.972;5.650;2023-05-24T08:02:31;17.0;51.3
78467;SHT31;67759;51.972;5.650;2023-05-24T08:05:01;17.0;50.5
78467;SHT31;67759;51.972;5.650;2023-05-24T08:07:31;17.0;50.5
78467;SHT31;67759;51.972;5.650;2023-05-24T08:10:01;17.1;51.7
78467;SHT31;67759;51.972;5.650;2023-05-24T08:12:33;17.1;50.1
78467;SHT31;67759;51.972;5.650;2023-05-24T08:15:02;17.3;49.7
78467;SHT31;67759;51.972;5.650;2023-05-24T08:17:33;17.4;49.3
78467;SHT31;67759;51.972;5.650;2023-05-24T08:20:03;17.5;50.1
78467;SHT31;67759;51.972;5.650;2023-05-24T08:22:35;17.6;49.6
78467;SHT31;67759;51.972;5.650;2023-05-24T08:25:06;17.7;49.2
78467;SHT31;67759;51.972;5.650;2023-05-24T08:27:38;17.8;48.8
78467;SHT31;67759;51.972;5.650;2023-05-24T08:30:08;17.8;48.1
78467;SHT31;67759;51.972;5.650;2023-05-24T08:32:39;17.9;48.6
78467;SHT31;67759;51.972;5.650;2023-05-24T08:35:09;17.9;47.2
78467;SHT31;67759;51.972;5.650;2023-05-24T08:37:39;18.0;47.0
78467;SHT31;67759;51.972;5.650;2023-05-24T08:40:09;18.0;47.1
78467;SHT31;67759;51.972;5.650;2023-05-24T08:42:40;18.1;47.2
78467;SHT31;67759;51.972;5.650;2023-05-24T08:45:13;18.2;47.6
78467;SHT31;67759;51.972;5.650;2023-05-24T08:47:44;18.3;46.4
78467;SHT31;67759;51.972;5.650;2023-05-24T08:50:15;18.5;46.9
78467;SHT31;67759;51.972;5.650;2023-05-24T08:52:45;18.6;46.0
78467;SHT31;67759;51.972;5.650;2023-05-24T08:55:16;18.7;45.4
78467;SHT31;67759;51.972;5.650;2023-05-24T08:57:46;18.8;45.2
78467;SHT31;67759;51.972;5.650;2023-05-24T09:00:18;18.8;45.1
78467;SHT31;67759;51.972;5.650;2023-05-24T09:02:49;18.9;44.9
78467;SHT31;67759;51.972;5.650;2023-05-24T09:05:19;19.0;44.5
78467;SHT31;67759;51.972;5.650;2023-05-24T09:07:50;19.2;43.5
78467;SHT31;67759;51.972;5.650;2023-05-24T09:10:21;19.3;43.3
78467;SHT31;67759;51.972;5.650;2023-05-24T09:12:55;19.4;43.0
78467;SHT31;67759;51.972;5.650;2023-05-24T09:15:26;19.5;43.0
78467;SHT31;67759;51.972;5.650;2023-05-24T09:17:56;19.6;42.2
78467;SHT31;67759;51.972;5.650;2023-05-24T09:20:26;19.7;42.1
78467;SHT31;67759;51.972;5.650;2023-05-24T09:22:58;19.8;42.1
78467;SHT31;67759;51.972;5.650;2023-05-24T09:25:28;19.9;41.6
78467;SHT31;67759;51.972;5.650;2023-05-24T09:28:06;19.9;41.6
78467;SHT31;67759;51.972;5.650;2023-05-24T09:30:37;20.0;41.1
78467;SHT31;67759;51.972;5.650;2023-05-24T09:33:06;19.9;41.9
78467;SHT31;67759;51.972;5.650;2023-05-24T09:35:38;19.9;42.3
78467;SHT31;67759;51.972;5.650;2023-05-24T09:38:17;19.9;42.7
78467;SHT31;67759;51.972;5.650;2023-05-24T09:40:58;19.8;42.6
78467;SHT31;67759;51.972;5.650;2023-05-24T09:43:30;19.8;43.0
78467;SHT31;67759;51.972;5.650;2023-05-24T09:46:03;19.8;42.3
78467;SHT31;67759;51.972;5.650;2023-05-24T09:48:33;19.8;42.2
78467;SHT31;67759;51.972;5.650;2023-05-24T09:51:06;19.7;42.0
78467;SHT31;67759;51.972;5.650;2023-05-24T09:53:38;19.6;42.3
78467;SHT31;67759;51.972;5.650;2023-05-24T09:56:13;19.6;42.6
78467;SHT31;67759;51.972;5.650;2023-05-24T09:58:44;19.6;41.6
78467;SHT31;67759;51.972;5.650;2023-05-24T10:01:14;19.6;41.6
78467;SHT31;67759;51.972;5.650;2023-05-24T10:03:53;19.5;40.8
78467;SHT31;67759;51.972;5.650;2023-05-24T10:06:24;19.5;40.9
78467;SHT31;67759;51.972;5.650;2023-05-24T10:08:54;19.5;41.4
78467;SHT31;67759;51.972;5.650;2023-05-24T10:11:25;19.4;41.4
78467;SHT31;67759;51.972;5.650;2023-05-24T10:13:55;19.4;41.5
78467;SHT31;67759;51.972;5.650;2023-05-24T10:16:26;19.4;41.3
78467;SHT31;67759;51.972;5.650;2023-05-24T10:18:55;19.4;41.6
78467;SHT31;67759;51.972;5.650;2023-05-24T10:21:31;19.4;41.8
78467;SHT31;67759;51.972;5.650;2023-05-24T10:24:08;19.3;42.3
78467;SHT31;67759;51.972;5.650;2023-05-24T10:26:40;19.3;42.1
78467;SHT31;67759;51.972;5.650;2023-05-24T10:29:22;19.3;42.2
78467;SHT31;67759;51.972;5.650;2023-05-24T10:31:53;19.3;43.0
78467;SHT31;67759;51.972;5.650;2023-05-24T10:34:24;19.3;42.5
78467;SHT31;67759;51.972;5.650;2023-05-24T10:36:57;19.4;42.0
78467;SHT31;67759;51.972;5.650;2023-05-24T10:39:28;19.5;41.8
78467;SHT31;67759;51.972;5.650;2023-05-24T10:42:01;19.6;41.8
78467;SHT31;67759;51.972;5.650;2023-05-24T10:44:31;19.8;41.9
78467;SHT31;67759;51.972;5.650;2023-05-24T10:47:12;19.9;41.3
78467;SHT31;67759;51.972;5.650;2023-05-24T10:49:49;20.0;40.9
78467;SHT31;67759;51.972;5.650;2023-05-24T10:52:20;20.1;41.8
78467;SHT31;67759;51.972;5.650;2023-05-24T10:55:05;20.3;41.8
78467;SHT31;67759;51.972;5.650;2023-05-24T10:57:37;20.3;40.9
78467;SHT31;67759;51.972;5.650;2023-05-24T11:03:06;20.4;40.8
78467;SHT31;67759;51.972;5.650;2023-05-24T11:05:53;20.5;40.9
78467;SHT31;67759;51.972;5.650;2023-05-24T11:08:29;20.5;41.6
78467;SHT31;67759;51.972;5.650;2023-05-24T11:11:06;20.5;40.8
78467;SHT31;67759;51.972;5.650;2023-05-24T11:13:39;20.5;39.1
78467;SHT31;67759;51.972;5.650;2023-05-24T11:16:33;20.5;39.8
78467;SHT31;67759;51.972;5.650;2023-05-24T11:19:15;20.4;39.4
78467;SHT31;67759;51.972;5.650;2023-05-24T11:21:46;20.4;39.8
78467;SHT31;67759;51.972;5.650;2023-05-24T11:24:18;20.4;40.9
78467;SHT31;67759;51.972;5.650;2023-05-24T11:26:49;20.5;41.6
78467;SHT31;67759;51.972;5.650;2023-05-24T11:29:21;20.6;39.4
78467;SHT31;67759;51.972;5.650;2023-05-24T11:31:52;20.7;38.6
78467;SHT31;67759;51.972;5.650;2023-05-24T11:34:24;20.8;38.8
78467;SHT31;67759;51.972;5.650;2023-05-24T11:36:54;20.8;38.8
78467;SHT31;67759;51.972;5.650;2023-05-24T11:39:27;20.8;39.2
78467;SHT31;67759;51.972;5.650;2023-05-24T11:41:59;20.9;39.6
78467;SHT31;67759;51.972;5.650;2023-05-24T11:44:31;20.9;39.5
78467;SHT31;67759;51.972;5.650;2023-05-24T11:47:03;20.9;40.0
78467;SHT31;67759;51.972;5.650;2023-05-24T11:49:33;21.0;39.9
78467;SHT31;67759;51.972;5.650;2023-05-24T11:52:04;21.1;39.1
78467;SHT31;67759;51.972;5.650;2023-05-24T11:54:35;21.2;39.0
78467;SHT31;67759;51.972;5.650;2023-05-24T11:57:07;21.3;38.7
78467;SHT31;67759;51.972;5.650;2023-05-24T11:59:40;21.3;38.5
78467;SHT31;67759;51.972;5.650;2023-05-24T12:02:10;21.4;38.8
78467;SHT31;67759;51.972;5.650;2023-05-24T12:04:40;21.4;38.9
78467;SHT31;67759;51.972;5.650;2023-05-24T12:07:11;21.5;37.5
78467;SHT31;67759;51.972;5.650;2023-05-24T12:09:41;21.5;38.3
78467;SHT31;67759;51.972;5.650;2023-05-24T12:12:11;21.6;40.3
78467;SHT31;67759;51.972;5.650;2023-05-24T12:14:41;21.7;39.5
78467;SHT31;67759;51.972;5.650;2023-05-24T12:17:15;21.9;38.7
78467;SHT31;67759;51.972;5.650;2023-05-24T12:19:49;22.1;37.9
78467;SHT31;67759;51.972;5.650;2023-05-24T12:22:27;22.3;38.1
78467;SHT31;67759;51.972;5.650;2023-05-24T12:24:59;22.5;36.6
78467;SHT31;67759;51.972;5.650;2023-05-24T12:27:32;22.6;37.3
78467;SHT31;67759;51.972;5.650;2023-05-24T12:30:07;22.7;36.8
78467;SHT31;67759;51.972;5.650;2023-05-24T12:32:42;22.7;38.0
78467;SHT31;67759;51.972;5.650;2023-05-24T12:35:13;22.8;36.9
78467;SHT31;67759;51.972;5.650;2023-05-24T12:37:43;22.9;37.1
78467;SHT31;67759;51.972;5.650;2023-05-24T12:40:18;23.0;36.2
78467;SHT31;67759;51.972;5.650;2023-05-24T12:42:52;23.1;36.1
78467;SHT31;67759;51.972;5.650;2023-05-24T12:45:24;23.2;36.3
78467;SHT31;67759;51.972;5.650;2023-05-24T12:47:56;23.2;36.2
78467;SHT31;67759;51.972;5.650;2023-05-24T12:50:27;23.2;35.4
78467;SHT31;67759;51.972;5.650;2023-05-24T12:52:58;23.2;35.1
78467;SHT31;67759;51.972;5.650;2023-05-24T12:55:28;23.1;35.8
78467;SHT31;67759;51.972;5.650;2023-05-24T12:57:58;23.0;35.2
78467;SHT31;67759;51.972;5.650;2023-05-24T13:00:29;23.0;36.1
78467;SHT31;67759;51.972;5.650;2023-05-24T13:02:59;22.9;35.8
78467;SHT31;67759;51.972;5.650;2023-05-24T13:05:29;22.9;35.4
78467;SHT31;67759;51.972;5.650;2023-05-24T13:07:59;23.0;36.7
78467;SHT31;67759;51.972;5.650;2023-05-24T13:10:30;23.1;36.2
78467;SHT31;67759;51.972;5.650;2023-05-24T13:13:01;23.2;36.1
78467;SHT31;67759;51.972;5.650;2023-05-24T13:15:31;23.3;35.1
78467;SHT31;67759;51.972;5.650;2023-05-24T13:18:01;23.3;35.0
78467;SHT31;67759;51.972;5.650;2023-05-24T13:20:31;23.2;35.1
78467;SHT31;67759;51.972;5.650;2023-05-24T13:23:00;23.2;35.4
78467;SHT31;67759;51.972;5.650;2023-05-24T13:25:30;23.2;36.3
78467;SHT31;67759;51.972;5.650;2023-05-24T13:27:59;23.3;34.7
78467;SHT31;67759;51.972;5.650;2023-05-24T13:30:29;23.4;35.3
78467;SHT31;67759;51.972;5.650;2023-05-24T13:32:59;23.5;34.9
78467;SHT31;67759;51.972;5.650;2023-05-24T13:35:30;23.6;35.1
78467;SHT31;67759;51.972;5.650;2023-05-24T13:37:59;23.7;34.1
78467;SHT31;67759;51.972;5.650;2023-05-24T13:40:29;23.8;34.2
78467;SHT31;67759;51.972;5.650;2023-05-24T13:43:00;23.9;34.1
78467;SHT31;67759;51.972;5.650;2023-05-24T13:45:30;23.9;33.3
78467;SHT31;67759;51.972;5.650;2023-05-24T13:48:00;24.0;33.2
78467;SHT31;67759;51.972;5.650;2023-05-24T13:50:31;24.0;33.7
78467;SHT31;67759;51.972;5.650;2023-05-24T13:53:03;24.0;33.1
78467;SHT31;67759;51.972;5.650;2023-05-24T13:55:34;23.9;33.0
78467;SHT31;67759;51.972;5.650;2023-05-24T13:58:05;23.6;33.7
78467;SHT31;67759;51.972;5.650;2023-05-24T14:00:35;23.4;34.4
78467;SHT31;67759;51.972;5.650;2023-05-24T14:03:04;23.2;34.6
78467;SHT31;67759;51.972;5.650;2023-05-24T14:05:34;23.1;34.8
78467;SHT31;67759;51.972;5.650;2023-05-24T14:08:04;22.9;34.8
78467;SHT31;67759;51.972;5.650;2023-05-24T14:10:34;22.8;34.4
78467;SHT31;67759;51.972;5.650;2023-05-24T14:13:05;22.8;34.2
78467;SHT31;67759;51.972;5.650;2023-05-24T14:15:35;22.7;34.8
78467;SHT31;67759;51.972;5.650;2023-05-24T14:18:05;22.6;35.6
78467;SHT31;67759;51.972;5.650;2023-05-24T14:20:35;22.5;35.6
78467;SHT31;67759;51.972;5.650;2023-05-24T14:23:07;22.3;35.7
78467;SHT31;67759;51.972;5.650;2023-05-24T14:25:37;22.2;36.2
78467;SHT31;67759;51.972;5.650;2023-05-24T14:28:08;22.1;36.1
78467;SHT31;67759;51.972;5.650;2023-05-24T14:30:38;22.0;36.4
78467;SHT31;67759;51.972;5.650;2023-05-24T14:33:08;21.9;36.4
78467;SHT31;67759;51.972;5.650;2023-05-24T14:35:40;21.9;35.8
78467;SHT31;67759;51.972;5.650;2023-05-24T14:38:10;21.8;36.1
78467;SHT31;67759;51.972;5.650;2023-05-24T14:40:40;21.8;36.1
78467;SHT31;67759;51.972;5.650;2023-05-24T14:43:13;21.7;36.1
78467;SHT31;67759;51.972;5.650;2023-05-24T14:45:45;21.7;35.7
78467;SHT31;67759;51.972;5.650;2023-05-24T14:48:16;21.7;36.5
78467;SHT31;67759;51.972;5.650;2023-05-24T14:50:47;21.6;36.9
78467;SHT31;67759;51.972;5.650;2023-05-24T14:53:17;21.5;36.8
78467;SHT31;67759;51.972;5.650;2023-05-24T14:55:46;21.5;36.3
78467;SHT31;67759;51.972;5.650;2023-05-24T14:58:18;21.3;36.4
78467;SHT31;67759;51.972;5.650;2023-05-24T15:00:48;21.2;37.4
78467;SHT31;67759;51.972;5.650;2023-05-24T15:03:19;21.1;38.1
78467;SHT31;67759;51.972;5.650;2023-05-24T15:05:49;21.0;38.4
78467;SHT31;67759;51.972;5.650;2023-05-24T15:08:20;20.9;38.3
78467;SHT31;67759;51.972;5.650;2023-05-24T15:10:50;20.8;38.7
78467;SHT31;67759;51.972;5.650;2023-05-24T15:13:20;20.8;39.3
78467;SHT31;67759;51.972;5.650;2023-05-24T15:15:51;20.8;40.2
78467;SHT31;67759;51.972;5.650;2023-05-24T15:18:23;20.8;39.1
78467;SHT31;67759;51.972;5.650;2023-05-24T15:20:54;20.8;39.8
78467;SHT31;67759;51.972;5.650;2023-05-24T15:23:24;20.8;39.8
78467;SHT31;67759;51.972;5.650;2023-05-24T15:25:56;20.9;39.3
78467;SHT31;67759;51.972;5.650;2023-05-24T15:28:28;20.9;38.0
78467;SHT31;67759;51.972;5.650;2023-05-24T15:30:57;21.0;38.1
78467;SHT31;67759;51.972;5.650;2023-05-24T15:33:34;21.0;37.9
78467;SHT31;67759;51.972;5.650;2023-05-24T15:36:04;20.9;37.9
78467;SHT31;67759;51.972;5.650;2023-05-24T15:38:36;20.9;38.2
78467;SHT31;67759;51.972;5.650;2023-05-24T15:41:06;20.8;38.6
78467;SHT31;67759;51.972;5.650;2023-05-24T15:43:35;20.8;38.8
78467;SHT31;67759;51.972;5.650;2023-05-24T15:46:05;20.8;39.5
78467;SHT31;67759;51.972;5.650;2023-05-24T15:48:34;20.8;39.2
78467;SHT31;67759;51.972;5.650;2023-05-24T15:51:04;20.8;39.4
78467;SHT31;67759;51.972;5.650;2023-05-24T15:53:36;20.8;40.2
78467;SHT31;67759;51.972;5.650;2023-05-24T15:56:07;20.8;38.5
78467;SHT31;67759;51.972;5.650;2023-05-24T15:58:38;20.8;38.2
78467;SHT31;67759;51.972;5.650;2023-05-24T16:01:08;20.8;39.3
78467;SHT31;67759;51.972;5.650;2023-05-24T16:03:37;20.8;39.0
78467;SHT31;67759;51.972;5.650;2023-05-24T16:06:07;20.8;38.7
78467;SHT31;67759;51.972;5.650;2023-05-24T16:08:37;20.7;39.2
78467;SHT31;67759;51.972;5.650;2023-05-24T16:11:07;20.5;39.4
78467;SHT31;67759;51.972;5.650;2023-05-24T16:13:37;20.4;39.7
78467;SHT31;67759;51.972;5.650;2023-05-24T16:16:07;20.4;39.7
78467;SHT31;67759;51.972;5.650;2023-05-24T16:18:36;20.3;40.0
78467;SHT31;67759;51.972;5.650;2023-05-24T16:21:06;20.3;40.2
78467;SHT31;67759;51.972;5.650;2023-05-24T16:23:38;20.2;39.9
78467;SHT31;67759;51.972;5.650;2023-05-24T16:26:08;20.2;40.4
78467;SHT31;67759;51.972;5.650;2023-05-24T16:28:39;20.1;40.6
78467;SHT31;67759;51.972;5.650;2023-05-24T16:31:14;20.0;41.4